Pahranagat National Wildlife Refuge, Nevada Weather observations

Data are for 10 minute period ending at time listed.
 Day   Time   Solar   Ave.   Ave.  Ave.  Vector  Max.   Baro.   Total    
  of    of     Rad.   Air    Rel.  Wind   Wind   Wind  Press.  Precip.   
Year   Day            Temp.  Hum.  Speed  Dir.   Gust                    
2016   (PST)  Kw/m2    F      %     mph   deg.    mph    mb.     in.     
-------------------------------------------------------------------------
 271   14:50   0.35   88.7    13    7.6   157    12.5   901.7    0.00 
 271   15:00   0.33   88.8    13    4.0   140     9.6   901.7    0.00 
 271   15:10   0.31   88.0    13    7.9   157    13.3   901.6    0.00 
 271   15:20   0.29   88.0    14    4.7   180     9.6   901.5    0.00 
 271   15:30   0.27   87.6    14    4.1   214     9.5   901.4    0.00 
 271   15:40   0.24   87.8    14    5.4   186    10.1   901.3    0.00 
 271   15:50   0.22   87.3    13    5.3   133     8.8   901.2    0.00 
 271   16:00   0.20   87.2    14    4.3   174     7.2   901.2    0.00 
 271   16:10   0.17   86.1    14    5.9   163     9.7   901.3    0.00 
 271   16:20   0.15   85.4    15    4.6   165     8.8   901.2    0.00 
 271   16:30   0.13   85.2    16    3.7   182     6.7   901.1    0.00 
 271   16:40   0.10   84.3    15    4.9   181     9.1   901.1    0.00 
 271   16:50   0.08   83.1    16    4.7   171     8.6   901.1    0.00 
 271   17:00   0.04   81.5    17    3.6   173     6.6   901.0    0.00 
 271   17:10   0.01   79.6    17    3.7   183     5.9   901.0    0.00 
 271   17:20   0.01   76.9    19    3.9   156     4.9   901.0    0.00 
 271   17:30   0.01   75.1    20    2.9   158     4.5   901.1    0.00 
 271   17:40   0.00   75.2    18    2.6   136     3.5   901.3    0.00 
 271   17:50   0.00   76.4    17    3.0   129     3.4   901.5    0.00 
 271   18:00   0.00   74.0    20    2.4   343     3.9   901.5    0.00 
 271   18:10   0.00   68.0    28    1.9   315     3.4   901.7    0.00 
 271   18:20   0.00   61.6    40    2.4   316     3.8   901.8    0.00 
 271   18:30   0.00   57.6    48    4.2   326     5.3   901.9    0.00 
 271   18:40   0.00   56.7    47    3.3   336     4.9   902.0    0.00 
 271   18:50   0.00   59.4    39    3.4   342     4.6   902.1    0.00 
 271   19:00   0.00   60.6    35    2.7   330     4.4   902.2    0.00 
 271   19:10   0.00   60.9    35    1.4   325     3.7   902.3    0.00 
 271   19:20   0.00   58.1    40    1.0     1     2.6   902.3    0.00 
 271   19:30   0.00   56.0    46    1.9   329     4.0   902.3    0.00 
 271   19:40   0.00   56.1    43    3.0   356     4.2   902.5    0.00 
 271   19:50   0.00   58.3    41    1.4   320     3.0   902.7    0.00 
 271   20:00   0.00   53.1    56    2.2   294     3.4   902.7    0.00 
 271   20:10   0.00   53.1    51    1.4     2     2.6   902.7    0.00 
 271   20:20   0.00   55.6    44    1.2   359     1.8   902.8    0.00 
 271   20:30   0.00   55.8    45    2.1   347     3.1   902.8    0.00 
 271   20:40   0.00   53.8    48    0.4     4     1.5   902.9    0.00 
 271   20:50   0.00   52.6    49    1.4    14     2.6   903.0    0.00 
 271   21:00   0.00   52.1    49    1.2    32     2.4   903.0    0.00 
 271   21:10   0.00   50.6    58    0.9   277     2.2   903.1    0.00 
 271   21:20   0.00   49.7    65    1.2   257     5.3   903.2    0.00 
 271   21:30   0.00   50.3    59    1.7     4     3.4   903.3    0.00 
 271   21:40   0.00   53.9    44    2.4   342     3.5   903.4    0.00 
 271   21:50   0.00   49.0    58    2.5   324     4.2   903.5    0.00 
 271   22:00   0.00   47.6    62    3.1   334     4.5   903.5    0.00 
 271   22:10   0.00   49.7    55    1.2   337     4.5   903.5    0.00 
 271   22:20   0.00   48.9    61    1.3   344     3.1   903.5    0.00 
 271   22:30   0.00   49.6    56    0.5    11     1.7   903.6    0.00 
 271   22:40   0.00   52.4    49    2.2   353     3.1   903.6    0.00 
 271   22:50   0.00   52.9    49    1.9   327     2.9   903.6    0.00 
 271   23:00   0.00   50.2    55    1.9   339     3.7   903.6    0.00 
 271   23:10   0.00   49.6    58    0.5   305     1.2   903.6    0.00 
 271   23:20   0.00   49.3    62    0.6   269     1.5   903.6    0.00 
 271   23:30   0.00   49.2    64    1.2   304     2.4   903.6    0.00 
 271   23:40   0.00   51.7    57    1.5   301     2.9   903.5    0.00 
 271   23:50   0.00   53.0    54    1.4   262     2.9   903.6    0.00 
 272    0:00   0.00   52.2    54    2.0   281     4.2   903.7    0.00 
 272    0:10   0.00   51.8    52    3.9   334     5.8   903.8    0.00 
 272    0:20   0.00   53.0    49    5.7   337     7.7   903.8    0.00 
 272    0:30   0.00   55.8    43    5.4   319     7.0   903.9    0.00 
 272    0:40   0.00   54.0    46    4.0   339     6.1   904.1    0.00 
 272    0:50   0.00   52.9    47    5.3   348     6.6   904.1    0.00 
 272    1:00   0.00   53.3    46    5.1   350     6.6   904.2    0.00 
 272    1:10   0.00   54.1    45    4.4   352     5.4   904.2    0.00 
 272    1:20   0.00   52.1    49    2.8   312     4.7   904.2    0.00 
 272    1:30   0.00   50.4    52    1.1   334     3.1   904.3    0.00 
 272    1:40   0.00   50.1    51    4.2   345     5.6   904.2    0.00 
 272    1:50   0.00   49.5    51    3.9   339     5.3   904.3    0.00 
 272    2:00   0.00   51.2    47    4.3   338     4.9   904.3    0.00 
 272    2:10   0.00   50.7    49    1.3   339     4.2   904.2    0.00 
 272    2:20   0.00   49.8    57    1.9   217     3.8   904.3    0.00 
 272    2:30   0.00   47.4    61    1.5    37     3.2   904.2    0.00 
 272    2:40   0.00   47.6    57    0.9   326     3.7   904.2    0.00 
 272    2:50   0.00   48.2    55    1.7   352     2.8   904.2    0.00 
 272    3:00   0.00   47.4    59    2.2   306     4.0   904.2    0.00 
 272    3:10   0.00   47.9    57    2.4   328     3.8   904.2    0.00 
 272    3:20   0.00   50.5    50    2.7   328     3.4   904.3    0.00 
 272    3:30   0.00   51.1    48    3.8   313     5.0   904.4    0.00 
 272    3:40   0.00   49.1    55    0.7   216     2.3   904.5    0.00 
 272    3:50   0.00   48.0    57    0.6    22     1.5   904.5    0.00 
 272    4:00   0.00   49.0    53    0.9   339     2.2   904.5    0.00 
 272    4:10   0.00   49.2    52    0.5   134     3.4   904.6    0.00 
 272    4:20   0.00   47.0    60    1.7   147     3.5   904.7    0.00 
 272    4:30   0.00   47.8    60    2.2   228     4.2   904.7    0.00 
 272    4:40   0.00   49.3    58    2.6   258     4.0   904.7    0.00 
 272    4:50   0.00   49.2    57    2.0    49     3.2   904.9    0.00 
 272    5:00   0.00   50.2    53    0.8     3     2.6   905.0    0.00 
 272    5:10   0.00   50.5    52    0.3    59     1.6   905.0    0.00 
 272    5:20   0.00   50.5    52    1.7   118     2.6   905.1    0.00 
 272    5:30   0.00   51.8    47    0.9    91     2.1   905.1    0.00 
 272    5:40   0.00   51.2    56    1.4   282     2.9   905.2    0.00 
 272    5:50   0.00   50.1    64    0.7   248     1.7   905.4    0.00 
 272    6:00   0.01   50.0    68    1.4   211     2.3   905.6    0.00 
 272    6:10   0.01   50.2    68    0.9   292     2.0   905.6    0.00 
 272    6:20   0.02   51.2    63    0.9    19     2.2   905.8    0.00 
 272    6:30   0.02   52.3    58    0.6   159     1.3   906.0    0.00 
 272    6:40   0.02   53.1    62    0.4   243     1.7   906.1    0.00 
 272    6:50   0.06   54.4    65    1.1   331     1.8   905.9    0.00 
 272    7:00   0.08   56.1    56    2.3    13     3.9   906.0    0.00 
 272    7:10   0.10   58.6    43    2.5     4     4.2   906.2    0.00 
 272    7:20   0.09   60.2    41    1.5   307     2.9   906.2    0.00 
 272    7:30   0.08   60.6    41    2.9   326     7.7   906.3    0.00 
 272    7:40   0.06   61.0    41    3.5   311     6.5   906.3    0.00 
 272    7:50   0.06   60.7    44    3.3   282     4.7   906.3    0.00 
 272    8:00   0.06   60.9    42    3.7   292     5.3   906.4    0.00 
 272    8:10   0.09   61.3    41    3.6   308     5.2   906.4    0.00 
 272    8:20   0.12   62.5    35    4.9   345     7.8   906.4    0.00 
 272    8:30   0.19   63.9    34    6.1   337     9.1   906.3    0.00 
 272    8:40   0.50   67.2    32    7.1   346    11.8   906.3    0.00 
 272    8:50   0.51   70.2    28    9.3   339    13.5   906.2    0.00 
 272    9:00   0.40   71.0    26    8.7   341    12.9   906.1    0.00 
 272    9:10   0.44   71.8    25    8.2   334    11.5   905.9    0.00 
 272    9:20   0.31   72.4    25    6.6   341     9.6   905.7    0.00 
 272    9:30   0.41   73.9    25    6.1   350    10.2   905.6    0.00 
 272    9:40   0.49   75.6    24    6.3   339     9.8   905.5    0.00 
 272    9:50   0.30   75.9    23    7.5   339    10.3   905.4    0.00 
 272   10:00   0.32   75.3    24    7.1   342    10.6   905.2    0.00 
 272   10:10   0.41   76.3    24    7.3   345    11.5   905.1    0.00 
 272   10:20   0.28   78.2    23    5.7   342     9.8   904.9    0.00 
 272   10:30   0.53   79.2    23    4.6   329     7.6   904.8    0.00 
 272   10:40   0.56   81.3    21    3.2   295     6.6   904.6    0.00 
 272   10:50   0.41   81.1    22    3.4   258     6.9   904.4    0.00 
 272   11:00   0.57   82.2    21    1.7   244     4.5   904.4    0.00 
 272   11:10   0.54   83.0    20    1.9   270     5.0   904.2    0.00 
 272   11:20   0.46   83.9    19    2.0   111     7.3   904.0    0.00 
 272   11:30   0.36   82.2    21    2.3   219     6.9   903.9    0.00 
 272   11:40   0.54   83.0    21    3.1   201     7.2   903.8    0.00 
 272   11:50   0.64   85.1    20    2.4   179     7.3   903.7    0.00 
 272   12:00   0.59   85.4    20    3.6   185    10.5   903.6    0.00 
 272   12:10   0.59   85.6    19    4.9   135     8.8   903.4    0.00 
 272   12:20   0.55   85.3    20    5.4   191     9.9   903.3    0.00 
 272   12:30   0.48   84.7    21    6.9   173    11.5   903.2    0.00 
 272   12:40   0.36   85.3    20    6.8   182    13.8   903.0    0.00 
 272   12:50   0.23   83.4    22    5.5   192    11.2   902.9    0.00 
 272   13:00   0.24   83.2    22    6.1   152    11.0   902.8    0.00 
 272   13:10   0.28   83.2    23    7.5   170    12.2   902.7    0.00 
 272   13:20   0.40   83.9    22    8.1   172    15.3   902.6    0.00 
 272   13:30   0.25   83.4    22    7.6   166    13.4   902.6    0.00 
 272   13:40   0.21   82.5    23    7.2   175    11.8   902.6    0.00 
 272   13:50   0.30   83.0    23    5.5   173    10.7   902.6    0.00 
 272   14:00   0.40   85.0    22    6.5   187    11.8   902.5    0.00 
 272   14:10   0.35   84.6    21    4.9   156     9.3   902.5    0.00 
 272   14:20   0.42   85.8    20    7.6   150    13.4   902.4    0.00 
 272   14:30   0.34   85.7    20    5.4   156    10.0   902.4    0.00 
 272   14:40   0.31   85.2    20    7.2   154    13.7   902.3    0.00 

Return to Pahranagat N. Wildlife Refuge graphs page.


Western Regional Climate Center,wrcc@dri.edu